Monroe Regional Airport Monroe US
ICAO: KMLU
IATA: MLU
Category: Large
Scheduled Services: Yes

Elevation: 79 ft
TransAlt. 18000 ft.

Airport Communications:
APP/DEP:118.15
ATIS:125.05
CLNC DEL:121.65
CTAF:118.9
GND:121.9
DE RIDDER RDO:122.25
TWR:118.9
UNICOM:122.95

KMLU Zoom In..

Runways:

(A) RW 04 length 7505 ft width 150 ft
ILS 109.50 / hdg 42

(B) RW 14 length 4999 ft width 150 ft
---- / hdg 137

(C) RW 18 length 5001 ft width 150 ft
---- / hdg 177

(D) RW 22 length 7505 ft width 150 ft
ILS 109.50 / hdg 222

(E) RW 32 length 4999 ft width 150 ft
---- / hdg 317

(F) RW 36 length 5001 ft width 150 ft
---- / hdg 357

Location; KMLU
Day. 22 / Time. 01.53 Zulu
* Altimeter: 29.98
* Temperature: 22° c. 71.6°f.
* Wind from: 090° Speed 05 kn.
Dewpoint: 21° c.
Visibility: 7 Statute Miles.
Clouds: Few 2500 ft.
Clouds: Broken 9500 ft.
Clouds: Overcast 12000 ft.
Conditions: Light Rain.

KMLU 220153Z 09005KT 7SM VCTS -RA FEW025 BKN095 OVC120 22/21 A2998 RMK AO2 LTG DSNT N-E RAB23 TSE03B12E38 SLP151 P0018 T02220206


Wind From 090°
Speed 05 kn.

 
 
jpsmedia.com for Web Design SOUNDCLOUD worldairports.se 2018   terms of use